Time;durP1;ratioP1;P1;durP2;ratioP2;P2;SDS_P1;SDS_P2;PMS_P1;PMS_P2;Temp;Humidity;BMP_temperature;BMP_pressure;BME280_temperature;BME280_humidity;BME280_pressure;Samples;Min_cycle;Max_cycle;Signal;HPM_P1;HPM_P2
2023/10/02 00:02:40;;;;;;;28.47;26.07;;;;;;;;;;5119715;28;20451;-82
2023/10/02 00:05:05;;;;;;;27.67;25.40;;;;;;;;;;5118565;28;20447;-81
2023/10/02 00:07:33;;;;;;;27.13;24.70;;;;;;;;;;5119963;28;20430;-80
2023/10/02 00:10:01;;;;;;;26.40;24.50;;;;;;;;;;5119111;28;20422;-82
2023/10/02 00:12:28;;;;;;;26.93;24.50;;;;;;;;;;5119395;28;20479;-80
2023/10/02 00:14:57;;;;;;;27.33;25.10;;;;;;;;;;5118232;28;20447;-82
2023/10/02 00:17:24;;;;;;;27.13;24.93;;;;;;;;;;5120455;28;20873;-81
2023/10/02 00:19:57;;;;;;;28.67;26.10;;;;;;;;;;5119483;28;20418;-79
2023/10/02 00:22:41;;;;;;;27.60;25.30;;;;;;;;;;5119653;28;20431;-82
2023/10/02 00:25:09;;;;;;;28.43;26.23;;;;;;;;;;5119108;28;20908;-82
2023/10/02 00:27:37;;;;;;;28.00;25.40;;;;;;;;;;5119818;28;20441;-82
2023/10/02 00:30:07;;;;;;;26.90;24.60;;;;;;;;;;5119312;28;20444;-81
2023/10/02 00:32:35;;;;;;;28.97;26.07;;;;;;;;;;5119601;28;20458;-81
2023/10/02 00:35:02;;;;;;;28.10;25.53;;;;;;;;;;5118657;28;20992;-81
2023/10/02 00:37:44;;;;;;;29.07;26.17;;;;;;;;;;5119302;28;20457;-81
2023/10/02 00:40:15;;;;;;;26.90;24.73;;;;;;;;;;5118982;28;20411;-81
2023/10/02 00:42:42;;;;;;;26.30;24.30;;;;;;;;;;5119501;28;20432;-80
2023/10/02 00:45:08;;;;;;;27.20;25.00;;;;;;;;;;5118933;28;20436;-81
2023/10/02 00:47:41;;;;;;;27.33;25.10;;;;;;;;;;5118926;28;20562;-81
2023/10/02 00:50:10;;;;;;;27.80;25.07;;;;;;;;;;5119694;28;20436;-81
2023/10/02 00:52:41;;;;;;;28.10;25.73;;;;;;;;;;5119129;28;20475;-81
2023/10/02 00:55:08;;;;;;;27.70;25.30;;;;;;;;;;5118947;28;20844;-81
2023/10/02 00:57:36;;;;;;;27.70;25.43;;;;;;;;;;5122595;28;20472;-81
2023/10/02 01:00:06;;;;;;;28.67;26.27;;;;;;;;;;5122386;28;20490;-80
2023/10/02 01:02:35;;;;;;;27.27;25.10;;;;;;;;;;5122582;28;20441;-80
2023/10/02 01:05:03;;;;;;;27.93;25.43;;;;;;;;;;5122309;28;20448;-80
2023/10/02 01:07:33;;;;;;;28.10;25.53;;;;;;;;;;5122254;28;20434;-82
2023/10/02 01:10:11;;;;;;;27.90;25.60;;;;;;;;;;5122419;28;20450;-83
2023/10/02 01:12:43;;;;;;;26.90;24.80;;;;;;;;;;5122106;28;20557;-81
2023/10/02 01:15:12;;;;;;;29.73;26.97;;;;;;;;;;5121525;28;20422;-81
2023/10/02 01:17:40;;;;;;;27.83;25.53;;;;;;;;;;5122400;27;20479;-81
2023/10/02 01:20:13;;;;;;;26.53;24.47;;;;;;;;;;5122425;28;20451;-80
2023/10/02 01:22:43;;;;;;;27.23;24.93;;;;;;;;;;5120352;28;20462;-80
2023/10/02 01:25:15;;;;;;;28.30;25.50;;;;;;;;;;5121630;28;20528;-81
2023/10/02 01:27:46;;;;;;;26.67;24.33;;;;;;;;;;5121763;28;20463;-82
2023/10/02 01:30:18;;;;;;;28.27;26.00;;;;;;;;;;5121778;28;20458;-81
2023/10/02 01:33:11;;;;;;;27.60;25.20;;;;;;;;;;5122103;28;20814;-81
2023/10/02 01:35:40;;;;;;;26.87;24.80;;;;;;;;;;5121185;28;20423;-81
2023/10/02 01:38:12;;;;;;;28.10;25.90;;;;;;;;;;5121690;27;20474;-82
2023/10/02 01:40:41;;;;;;;28.90;24.80;;;;;;;;;;5121572;28;20474;-82
2023/10/02 01:43:13;;;;;;;27.67;25.10;;;;;;;;;;5121700;28;20455;-83
2023/10/02 01:45:42;;;;;;;28.07;25.50;;;;;;;;;;5104788;28;20459;-82
2023/10/02 01:48:12;;;;;;;26.57;24.43;;;;;;;;;;5100819;28;20504;-81
2023/10/02 01:50:38;;;;;;;27.40;25.20;;;;;;;;;;5101531;28;20449;-81
2023/10/02 01:53:06;;;;;;;26.93;24.77;;;;;;;;;;5101155;28;20512;-81
2023/10/02 01:55:35;;;;;;;28.37;25.67;;;;;;;;;;5100824;28;20881;-82
2023/10/02 01:58:17;;;;;;;30.30;27.60;;;;;;;;;;5101612;28;20953;-81
2023/10/02 02:00:45;;;;;;;27.63;25.20;;;;;;;;;;5100758;28;20460;-81
2023/10/02 02:03:17;;;;;;;27.97;25.67;;;;;;;;;;5101140;28;20431;-82
2023/10/02 02:05:46;;;;;;;27.73;25.20;;;;;;;;;;5100889;28;20513;-81
2023/10/02 02:08:23;;;;;;;28.07;25.73;;;;;;;;;;5101903;28;20434;-81
2023/10/02 02:10:51;;;;;;;28.07;25.77;;;;;;;;;;5100934;28;20456;-82
2023/10/02 02:13:20;;;;;;;26.53;24.53;;;;;;;;;;5100908;28;20486;-81
2023/10/02 02:15:51;;;;;;;27.37;25.17;;;;;;;;;;5100705;28;20445;-81
2023/10/02 02:18:19;;;;;;;27.00;24.80;;;;;;;;;;5101491;28;20940;-81
2023/10/02 02:20:57;;;;;;;27.40;25.07;;;;;;;;;;5100982;28;20462;-81
2023/10/02 02:23:26;;;;;;;28.23;26.03;;;;;;;;;;5100898;28;20811;-81
2023/10/02 02:25:53;;;;;;;26.73;24.43;;;;;;;;;;5100588;28;20453;-82
2023/10/02 02:28:21;;;;;;;28.43;26.07;;;;;;;;;;5101010;28;20439;-81
2023/10/02 02:30:48;;;;;;;27.87;25.37;;;;;;;;;;5100660;28;20450;-81
2023/10/02 02:33:16;;;;;;;27.03;24.93;;;;;;;;;;5101150;28;20493;-81
2023/10/02 02:35:44;;;;;;;27.37;25.07;;;;;;;;;;5099660;28;20457;-81
2023/10/02 02:41:05;;;;;;;27.80;25.47;;;;;;;;;;5101275;28;20447;-81
2023/10/02 02:43:33;;;;;;;28.43;26.03;;;;;;;;;;5100577;28;20422;-82
2023/10/02 02:46:00;;;;;;;28.47;25.97;;;;;;;;;;5099541;28;20411;-80
2023/10/02 02:48:43;;;;;;;28.37;25.63;;;;;;;;;;5099431;28;20451;-82
2023/10/02 02:51:18;;;;;;;26.53;24.53;;;;;;;;;;5099676;28;20417;-80
2023/10/02 02:53:46;;;;;;;28.10;25.70;;;;;;;;;;5100113;28;20488;-82
2023/10/02 02:56:18;;;;;;;28.00;25.80;;;;;;;;;;5099640;28;20472;-80
2023/10/02 02:58:48;;;;;;;27.60;25.20;;;;;;;;;;5100119;28;20452;-81
2023/10/02 03:01:21;;;;;;;28.20;25.77;;;;;;;;;;5100132;28;20911;-81
2023/10/02 03:03:49;;;;;;;26.40;24.40;;;;;;;;;;5106667;28;20444;-80
2023/10/02 03:06:18;;;;;;;26.17;24.07;;;;;;;;;;5119917;28;20464;-81
2023/10/02 03:08:45;;;;;;;28.67;25.87;;;;;;;;;;5120154;28;20426;-81
2023/10/02 03:11:12;;;;;;;29.13;26.53;;;;;;;;;;5120149;28;20436;-81
2023/10/02 03:13:40;;;;;;;27.97;25.63;;;;;;;;;;5119861;28;20893;-81
2023/10/02 03:16:17;;;;;;;28.40;25.80;;;;;;;;;;5119692;28;20480;-81
2023/10/02 03:18:43;;;;;;;27.97;25.47;;;;;;;;;;5119503;28;20448;-81
2023/10/02 03:21:16;;;;;;;27.53;25.20;;;;;;;;;;5120861;28;20443;-81
2023/10/02 03:23:43;;;;;;;29.13;26.73;;;;;;;;;;5119244;28;20433;-84
2023/10/02 03:26:26;;;;;;;26.53;24.10;;;;;;;;;;5119621;28;20464;-80
2023/10/02 03:29:00;;;;;;;27.37;25.17;;;;;;;;;;5120112;28;20478;-82
2023/10/02 03:31:34;;;;;;;26.63;24.50;;;;;;;;;;5120379;28;20436;-83
2023/10/02 03:34:24;;;;;;;26.37;23.97;;;;;;;;;;5119060;28;20503;-82
2023/10/02 03:36:49;;;;;;;27.83;25.50;;;;;;;;;;5119415;28;20521;-82
2023/10/02 03:39:51;;;;;;;27.13;25.10;;;;;;;;;;5119994;28;20422;-83
2023/10/02 03:42:12;;;;;;;28.43;25.93;;;;;;;;;;5119937;28;20429;-82
2023/10/02 03:44:40;;;;;;;28.43;26.03;;;;;;;;;;5113859;28;20818;-81
2023/10/02 03:47:12;;;;;;;28.87;26.47;;;;;;;;;;5119876;28;20536;-80
2023/10/02 03:49:40;;;;;;;27.67;25.27;;;;;;;;;;5119798;28;20453;-82
2023/10/02 03:52:07;;;;;;;29.10;26.07;;;;;;;;;;5119265;28;20450;-80
2023/10/02 03:54:34;;;;;;;28.00;25.30;;;;;;;;;;5119288;28;20454;-80
2023/10/02 03:57:02;;;;;;;27.27;24.67;;;;;;;;;;5118865;28;20476;-80
2023/10/02 03:59:33;;;;;;;27.87;25.30;;;;;;;;;;5119927;28;20447;-81
2023/10/02 04:04:44;;;;;;;27.70;25.30;;;;;;;;;;5118876;28;20413;-81
2023/10/02 04:07:12;;;;;;;28.50;26.20;;;;;;;;;;5119676;28;20467;-81
2023/10/02 04:09:39;;;;;;;27.47;25.20;;;;;;;;;;5119974;28;20792;-81
2023/10/02 04:12:07;;;;;;;28.47;26.10;;;;;;;;;;5118830;28;20498;-80
2023/10/02 04:14:38;;;;;;;28.73;26.27;;;;;;;;;;5118984;28;20480;-82
2023/10/02 04:17:13;;;;;;;27.30;25.00;;;;;;;;;;5119102;28;20478;-81
2023/10/02 04:19:43;;;;;;;28.23;25.73;;;;;;;;;;5118845;28;20447;-82
2023/10/02 04:22:19;;;;;;;29.60;27.13;;;;;;;;;;5119630;28;20468;-81
2023/10/02 04:24:53;;;;;;;28.40;26.13;;;;;;;;;;5119107;28;20448;-81
2023/10/02 04:27:25;;;;;;;27.37;25.10;;;;;;;;;;5119339;28;20499;-81
2023/10/02 04:32:33;;;;;;;27.73;25.13;;;;;;;;;;5123082;28;20804;-81
2023/10/02 04:35:02;;;;;;;29.00;26.33;;;;;;;;;;5122323;28;20455;-81
2023/10/02 04:37:32;;;;;;;28.73;26.50;;;;;;;;;;5123929;28;20555;-81
2023/10/02 04:40:16;;;;;;;29.87;27.23;;;;;;;;;;5123228;28;20460;-80
2023/10/02 04:43:19;;;;;;;28.80;26.20;;;;;;;;;;5122795;27;20468;-82
2023/10/02 04:45:46;;;;;;;29.27;26.83;;;;;;;;;;5122728;28;20517;-81
2023/10/02 04:48:13;;;;;;;28.43;26.00;;;;;;;;;;5122912;28;20430;-82
2023/10/02 04:50:45;;;;;;;30.20;27.60;;;;;;;;;;5122554;28;20447;-81
2023/10/02 04:53:22;;;;;;;29.27;26.70;;;;;;;;;;5123165;28;20532;-82
2023/10/02 04:55:57;;;;;;;28.57;26.13;;;;;;;;;;5123018;28;20439;-81
2023/10/02 04:58:27;;;;;;;28.80;26.40;;;;;;;;;;5122893;28;20427;-80
2023/10/02 05:03:49;;;;;;;26.93;24.83;;;;;;;;;;5122813;28;20447;-80
2023/10/02 05:06:16;;;;;;;30.63;27.50;;;;;;;;;;5123917;28;20823;-81
2023/10/02 05:11:26;;;;;;;27.27;24.77;;;;;;;;;;5122211;28;20995;-81
2023/10/02 05:13:59;;;;;;;28.70;26.10;;;;;;;;;;5122152;27;20479;-82
2023/10/02 05:16:32;;;;;;;27.37;25.27;;;;;;;;;;5122862;28;20524;-82
2023/10/02 05:18:59;;;;;;;27.77;25.30;;;;;;;;;;5122687;28;20938;-82
2023/10/02 05:21:36;;;;;;;27.47;24.97;;;;;;;;;;5122129;28;20459;-81
2023/10/02 05:24:05;;;;;;;28.73;26.30;;;;;;;;;;5122737;28;20812;-82
2023/10/02 05:26:36;;;;;;;27.00;24.67;;;;;;;;;;5121915;28;20438;-80
2023/10/02 05:29:05;;;;;;;27.87;25.47;;;;;;;;;;5122730;28;20429;-81
2023/10/02 05:31:35;;;;;;;26.50;24.37;;;;;;;;;;5122290;28;20473;-81
2023/10/02 05:34:07;;;;;;;28.93;26.43;;;;;;;;;;5122298;28;20450;-80
2023/10/02 05:36:35;;;;;;;28.80;26.43;;;;;;;;;;5122057;27;20462;-82
2023/10/02 05:41:48;;;;;;;27.47;25.13;;;;;;;;;;5122321;28;20431;-81
2023/10/02 05:44:23;;;;;;;27.77;25.37;;;;;;;;;;5115710;27;20445;-78
2023/10/02 05:46:57;;;;;;;29.17;26.57;;;;;;;;;;5116511;28;20856;-79
2023/10/02 05:49:26;;;;;;;29.13;26.80;;;;;;;;;;5118139;28;20458;-79
2023/10/02 05:51:56;;;;;;;27.53;25.33;;;;;;;;;;5118410;27;20461;-81
2023/10/02 05:54:29;;;;;;;26.83;24.57;;;;;;;;;;5117771;28;20576;-79
2023/10/02 05:57:09;;;;;;;27.47;25.00;;;;;;;;;;5118464;28;20463;-80
2023/10/02 05:59:45;;;;;;;26.53;24.43;;;;;;;;;;5117907;28;20446;-79
2023/10/02 06:02:12;;;;;;;26.30;24.20;;;;;;;;;;5118049;28;20458;-80
2023/10/02 06:04:43;;;;;;;28.03;25.63;;;;;;;;;;5117118;28;20853;-79
2023/10/02 06:07:11;;;;;;;28.77;26.23;;;;;;;;;;5117705;28;20457;-79
2023/10/02 06:09:44;;;;;;;27.30;25.00;;;;;;;;;;5117999;27;20501;-79
2023/10/02 06:12:13;;;;;;;27.53;25.27;;;;;;;;;;5117360;28;20414;-79
2023/10/02 06:14:42;;;;;;;27.80;25.20;;;;;;;;;;5117762;28;20479;-78
2023/10/02 06:17:12;;;;;;;27.87;25.40;;;;;;;;;;5117263;28;20474;-80
2023/10/02 06:19:44;;;;;;;26.53;24.43;;;;;;;;;;5117059;28;20426;-79
2023/10/02 06:22:13;;;;;;;26.73;24.73;;;;;;;;;;5116907;27;20533;-78
2023/10/02 06:24:40;;;;;;;27.13;25.03;;;;;;;;;;5116966;27;20444;-80
2023/10/02 06:27:13;;;;;;;27.73;25.43;;;;;;;;;;5117350;28;20475;-78
2023/10/02 06:29:44;;;;;;;28.80;26.30;;;;;;;;;;5115777;28;20426;-79
2023/10/02 06:32:14;;;;;;;28.00;25.60;;;;;;;;;;5097150;28;20917;-80
2023/10/02 06:34:44;;;;;;;28.33;25.93;;;;;;;;;;5094761;28;20829;-79
2023/10/02 06:37:12;;;;;;;29.00;26.57;;;;;;;;;;5096478;28;20474;-78
2023/10/02 06:39:40;;;;;;;29.60;26.97;;;;;;;;;;5096542;28;20448;-80
2023/10/02 06:42:08;;;;;;;28.47;26.07;;;;;;;;;;5096815;28;20462;-79
2023/10/02 06:44:42;;;;;;;29.73;27.23;;;;;;;;;;5096177;28;20449;-79
2023/10/02 06:47:13;;;;;;;28.07;25.67;;;;;;;;;;5095892;28;20516;-80
2023/10/02 06:49:40;;;;;;;26.83;24.63;;;;;;;;;;5096390;28;20425;-79
2023/10/02 06:52:15;;;;;;;27.63;25.23;;;;;;;;;;5094860;28;20449;-79
2023/10/02 06:54:43;;;;;;;28.53;25.63;;;;;;;;;;5093858;28;20898;-79
2023/10/02 06:57:13;;;;;;;27.77;25.40;;;;;;;;;;5094361;28;20520;-79
2023/10/02 06:59:40;;;;;;;26.07;23.90;;;;;;;;;;5094699;28;20772;-79
2023/10/02 07:02:09;;;;;;;26.87;24.43;;;;;;;;;;5093978;28;20484;-79
2023/10/02 07:04:37;;;;;;;27.13;25.03;;;;;;;;;;5093419;28;20506;-79
2023/10/02 07:07:04;;;;;;;26.50;24.00;;;;;;;;;;5092256;28;20465;-78
2023/10/02 07:09:34;;;;;;;25.80;23.70;;;;;;;;;;5092843;28;20816;-78
2023/10/02 07:12:09;;;;;;;27.17;24.80;;;;;;;;;;5092918;28;20453;-79
2023/10/02 07:14:37;;;;;;;27.30;24.80;;;;;;;;;;5092160;28;20815;-78
2023/10/02 07:17:16;;;;;;;26.23;24.00;;;;;;;;;;5092713;28;20573;-79
2023/10/02 07:19:48;;;;;;;26.80;24.27;;;;;;;;;;5093092;28;20530;-79
2023/10/02 07:22:17;;;;;;;27.90;25.33;;;;;;;;;;5092829;28;20433;-80
2023/10/02 07:24:46;;;;;;;24.73;22.63;;;;;;;;;;5092411;28;20850;-79
2023/10/02 07:27:23;;;;;;;26.30;23.60;;;;;;;;;;5092117;28;20462;-78
2023/10/02 07:29:51;;;;;;;24.97;22.90;;;;;;;;;;5091893;28;20449;-78
2023/10/02 07:32:19;;;;;;;26.13;23.70;;;;;;;;;;5091200;28;20507;-78
2023/10/02 07:34:47;;;;;;;26.17;23.93;;;;;;;;;;5090899;28;20603;-79
2023/10/02 07:37:16;;;;;;;26.17;24.03;;;;;;;;;;5091117;28;20485;-79
2023/10/02 07:39:43;;;;;;;26.07;23.87;;;;;;;;;;5091616;28;20449;-79
2023/10/02 07:42:11;;;;;;;25.27;23.00;;;;;;;;;;5091962;28;20464;-80
2023/10/02 07:44:38;;;;;;;26.83;24.17;;;;;;;;;;5090708;28;20463;-79
2023/10/02 07:47:10;;;;;;;23.90;21.73;;;;;;;;;;5091235;28;20465;-78
2023/10/02 07:49:38;;;;;;;24.93;22.80;;;;;;;;;;5091834;28;20429;-80
2023/10/02 07:52:08;;;;;;;25.53;23.40;;;;;;;;;;5091006;28;20847;-77
2023/10/02 07:54:45;;;;;;;25.23;23.13;;;;;;;;;;5091050;28;20485;-79
2023/10/02 07:57:13;;;;;;;24.30;22.23;;;;;;;;;;5090579;28;20523;-83
2023/10/02 07:59:43;;;;;;;26.20;23.90;;;;;;;;;;5092405;28;20457;-79
2023/10/02 08:02:22;;;;;;;23.53;21.50;;;;;;;;;;5091746;28;20498;-78
2023/10/02 08:04:51;;;;;;;25.63;23.43;;;;;;;;;;5091991;28;20424;-79
2023/10/02 08:07:20;;;;;;;25.43;23.33;;;;;;;;;;5095543;28;20476;-78
2023/10/02 08:09:48;;;;;;;24.63;22.43;;;;;;;;;;5096646;28;20437;-80
2023/10/02 08:12:30;;;;;;;24.70;22.70;;;;;;;;;;5098174;28;20539;-82
2023/10/02 08:15:00;;;;;;;24.87;22.90;;;;;;;;;;5099171;28;20987;-80
2023/10/02 08:20:16;;;;;;;24.30;22.20;;;;;;;;;;5100238;28;20455;-84
2023/10/02 08:22:45;;;;;;;25.90;23.90;;;;;;;;;;5106009;28;20420;-79
2023/10/02 08:25:14;;;;;;;25.00;22.90;;;;;;;;;;5104207;28;20410;-79
2023/10/02 08:27:41;;;;;;;23.60;21.60;;;;;;;;;;5095428;28;20495;-80
2023/10/02 08:30:19;;;;;;;24.90;22.53;;;;;;;;;;5103558;28;20458;-80
2023/10/02 08:32:48;;;;;;;23.80;21.93;;;;;;;;;;5101900;28;20449;-79
2023/10/02 08:35:16;;;;;;;25.90;23.20;;;;;;;;;;5105575;28;20558;-79
2023/10/02 08:37:44;;;;;;;26.93;24.53;;;;;;;;;;5104078;28;20448;-79
2023/10/02 08:40:14;;;;;;;24.40;22.50;;;;;;;;;;5103663;28;20786;-80
2023/10/02 08:42:46;;;;;;;24.97;22.90;;;;;;;;;;5104384;28;20471;-79
2023/10/02 08:45:18;;;;;;;24.63;22.63;;;;;;;;;;5099424;28;20528;-80
2023/10/02 08:47:47;;;;;;;24.43;22.20;;;;;;;;;;5114442;28;20487;-81
2023/10/02 08:50:15;;;;;;;25.50;23.10;;;;;;;;;;5107287;28;20799;-81
2023/10/02 08:52:47;;;;;;;24.93;22.43;;;;;;;;;;5112558;28;21756;-80
2023/10/02 08:55:36;;;;;;;26.63;23.93;;;;;;;;;;5109533;28;20963;-78
2023/10/02 08:58:16;;;;;;;25.00;22.57;;;;;;;;;;5118129;27;20456;-78
2023/10/02 09:01:17;;;;;;;25.17;22.97;;;;;;;;;;5110455;28;20471;-79
2023/10/02 09:03:48;;;;;;;25.90;23.50;;;;;;;;;;5111875;28;20473;-79
2023/10/02 09:06:31;;;;;;;26.33;23.83;;;;;;;;;;5118528;28;20470;-81
2023/10/02 09:09:16;;;;;;;25.50;23.30;;;;;;;;;;5119939;28;20522;-79
2023/10/02 09:11:45;;;;;;;25.70;23.53;;;;;;;;;;5120125;28;20424;-78
2023/10/02 09:14:16;;;;;;;25.13;22.93;;;;;;;;;;5116128;28;20484;-78
2023/10/02 09:16:45;;;;;;;25.03;22.67;;;;;;;;;;5117634;28;20460;-79
2023/10/02 09:22:06;;;;;;;27.13;24.73;;;;;;;;;;5097760;28;20978;-80
2023/10/02 09:24:34;;;;;;;26.70;24.20;;;;;;;;;;5111405;28;20447;-80
2023/10/02 09:29:45;;;;;;;25.83;23.27;;;;;;;;;;5099175;27;20531;-80
2023/10/02 09:32:21;;;;;;;35.87;26.27;;;;;;;;;;5097762;28;20457;-80
2023/10/02 09:35:08;;;;;;;26.90;24.50;;;;;;;;;;5096245;28;20480;-78
2023/10/02 09:37:36;;;;;;;26.00;23.60;;;;;;;;;;5094374;28;20479;-80
2023/10/02 09:40:14;;;;;;;25.90;23.90;;;;;;;;;;5096395;28;20506;-87
2023/10/02 09:42:45;;;;;;;27.40;24.83;;;;;;;;;;5098822;28;20527;-79
2023/10/02 09:45:16;;;;;;;26.50;24.00;;;;;;;;;;5098360;28;20451;-80
2023/10/02 09:47:43;;;;;;;25.63;23.40;;;;;;;;;;5096412;28;20859;-79
2023/10/02 09:50:14;;;;;;;28.67;25.57;;;;;;;;;;5113477;28;20426;-80
2023/10/02 09:52:58;;;;;;;27.17;24.70;;;;;;;;;;5112958;28;20437;-78
2023/10/02 09:55:34;;;;;;;26.73;24.37;;;;;;;;;;5120480;28;20467;-85
2023/10/02 09:58:03;;;;;;;26.53;24.07;;;;;;;;;;5112077;28;20501;-80
2023/10/02 10:00:40;;;;;;;25.87;23.77;;;;;;;;;;5121096;28;20448;-82
2023/10/02 10:03:30;;;;;;;26.50;24.33;;;;;;;;;;5120878;28;20453;-82
2023/10/02 10:06:16;;;;;;;26.40;24.10;;;;;;;;;;5120213;28;20443;-81
2023/10/02 10:12:21;;;;;;;28.30;25.60;;;;;;;;;;5119789;27;20443;-80
2023/10/02 10:14:37;;;;;;;27.40;25.00;;;;;;;;;;5118497;28;21022;-81
2023/10/02 10:17:12;;;;;;;25.20;23.07;;;;;;;;;;5120019;28;20457;-81
2023/10/02 10:19:38;;;;;;;26.40;24.13;;;;;;;;;;5119922;28;20522;-81
2023/10/02 10:22:10;;;;;;;24.93;22.47;;;;;;;;;;5119002;28;20459;-80
2023/10/02 10:24:51;;;;;;;27.10;24.40;;;;;;;;;;5118728;28;20406;-82
2023/10/02 10:27:33;;;;;;;27.77;25.20;;;;;;;;;;5119044;28;20449;-82
2023/10/02 10:30:10;;;;;;;27.07;24.67;;;;;;;;;;5105108;28;20443;-80
2023/10/02 10:32:38;;;;;;;28.03;25.43;;;;;;;;;;5109401;28;20452;-81
2023/10/02 10:35:15;;;;;;;27.47;24.97;;;;;;;;;;5097757;28;21197;-80
2023/10/02 10:37:43;;;;;;;26.93;24.63;;;;;;;;;;5098063;28;20446;-80
2023/10/02 10:42:59;;;;;;;27.53;24.93;;;;;;;;;;5096495;28;20437;-83
2023/10/02 10:45:33;;;;;;;28.23;25.50;;;;;;;;;;5098536;28;20460;-83
2023/10/02 10:47:59;;;;;;;27.33;24.87;;;;;;;;;;5097479;28;20440;-82
2023/10/02 10:50:30;;;;;;;29.57;26.73;;;;;;;;;;5098094;28;20433;-82
2023/10/02 10:55:44;;;;;;;27.20;24.83;;;;;;;;;;5096267;28;20497;-83
2023/10/02 10:58:11;;;;;;;27.80;25.23;;;;;;;;;;5108310;28;20444;-85
2023/10/02 11:00:41;;;;;;;27.97;25.57;;;;;;;;;;5117651;28;20434;-84
2023/10/02 11:03:14;;;;;;;27.47;25.10;;;;;;;;;;5116173;28;20475;-81
2023/10/02 11:05:41;;;;;;;28.83;26.17;;;;;;;;;;5114493;27;20759;-83
2023/10/02 11:08:28;;;;;;;29.57;26.70;;;;;;;;;;5114682;28;20962;-83
2023/10/02 11:11:04;;;;;;;28.27;25.87;;;;;;;;;;5103428;28;20448;-83
2023/10/02 11:13:31;;;;;;;28.27;25.87;;;;;;;;;;5097717;28;20452;-82
2023/10/02 11:16:07;;;;;;;28.07;25.60;;;;;;;;;;5097045;28;20487;-81
2023/10/02 11:18:39;;;;;;;28.67;25.93;;;;;;;;;;5098496;28;20452;-80
2023/10/02 11:21:21;;;;;;;27.30;24.83;;;;;;;;;;5099049;28;20412;-80
2023/10/02 11:23:48;;;;;;;26.43;24.13;;;;;;;;;;5110835;28;20447;-79
2023/10/02 11:26:21;;;;;;;27.73;25.20;;;;;;;;;;5111651;28;20467;-77
2023/10/02 11:28:49;;;;;;;28.60;26.20;;;;;;;;;;5115656;28;20774;-83
2023/10/02 11:31:31;;;;;;;29.00;26.30;;;;;;;;;;5117248;27;20459;-82
2023/10/02 11:34:00;;;;;;;28.67;26.07;;;;;;;;;;5107159;28;20544;-84
2023/10/02 11:36:28;;;;;;;28.20;25.60;;;;;;;;;;5097853;28;20492;-83
2023/10/02 11:38:56;;;;;;;28.30;25.80;;;;;;;;;;5098038;28;20783;-81
2023/10/02 11:41:23;;;;;;;27.90;25.53;;;;;;;;;;5098218;28;20456;-83
2023/10/02 11:43:51;;;;;;;28.40;25.80;;;;;;;;;;5097156;28;20464;-84
2023/10/02 11:46:20;;;;;;;27.93;25.53;;;;;;;;;;5098898;28;20468;-83
2023/10/02 11:48:49;;;;;;;27.87;25.57;;;;;;;;;;5100321;28;20469;-81
2023/10/02 11:51:17;;;;;;;27.97;25.50;;;;;;;;;;5100861;28;20505;-82
2023/10/02 11:53:44;;;;;;;27.77;25.50;;;;;;;;;;5100320;28;20422;-83
2023/10/02 11:56:11;;;;;;;28.47;26.00;;;;;;;;;;5099668;28;20493;-84
2023/10/02 11:58:38;;;;;;;31.17;28.27;;;;;;;;;;5100424;28;20457;-82
2023/10/02 12:01:06;;;;;;;29.93;27.23;;;;;;;;;;5117287;28;20418;-83
2023/10/02 12:03:36;;;;;;;28.27;25.90;;;;;;;;;;5120594;28;20497;-85
2023/10/02 12:06:03;;;;;;;27.27;25.17;;;;;;;;;;5120699;28;20803;-83
2023/10/02 12:08:33;;;;;;;29.13;26.63;;;;;;;;;;5120486;28;20448;-83
2023/10/02 12:11:01;;;;;;;27.43;25.23;;;;;;;;;;5121805;28;20432;-83
2023/10/02 12:13:29;;;;;;;26.00;23.77;;;;;;;;;;5120892;28;20452;-85
2023/10/02 12:15:57;;;;;;;28.70;26.20;;;;;;;;;;5117931;28;20462;-83
2023/10/02 12:18:25;;;;;;;26.73;24.53;;;;;;;;;;5118632;28;20434;-83
2023/10/02 12:20:53;;;;;;;26.93;24.60;;;;;;;;;;5120184;28;20471;-82
2023/10/02 12:23:20;;;;;;;27.80;25.40;;;;;;;;;;5120307;28;20515;-83
2023/10/02 12:25:48;;;;;;;27.57;25.27;;;;;;;;;;5119789;28;20451;-83
2023/10/02 12:28:15;;;;;;;27.97;25.43;;;;;;;;;;5120314;28;20485;-83
2023/10/02 12:30:42;;;;;;;28.83;26.40;;;;;;;;;;5120073;28;20458;-83
2023/10/02 12:33:10;;;;;;;30.00;26.07;;;;;;;;;;5119557;28;20481;-81
2023/10/02 12:35:37;;;;;;;29.13;26.43;;;;;;;;;;5120317;28;20519;-83
2023/10/02 12:38:07;;;;;;;29.43;26.73;;;;;;;;;;5120108;28;20469;-84
2023/10/02 12:40:34;;;;;;;29.20;26.70;;;;;;;;;;5119640;28;20919;-86
2023/10/02 12:43:03;;;;;;;29.33;26.73;;;;;;;;;;5114618;28;20464;-83
2023/10/02 12:45:35;;;;;;;31.73;28.93;;;;;;;;;;5113208;28;20456;-81
2023/10/02 12:48:06;;;;;;;28.90;26.33;;;;;;;;;;5113925;28;20487;-81
2023/10/02 12:50:33;;;;;;;28.70;26.13;;;;;;;;;;5094203;28;20457;-82
2023/10/02 12:53:00;;;;;;;26.87;24.73;;;;;;;;;;5104417;28;20976;-80
2023/10/02 12:55:29;;;;;;;28.13;25.60;;;;;;;;;;5095737;28;20561;-81
2023/10/02 12:57:56;;;;;;;29.20;26.67;;;;;;;;;;5111801;28;20481;-81
2023/10/02 13:00:24;;;;;;;28.00;25.70;;;;;;;;;;5109854;28;20978;-80
2023/10/02 13:02:51;;;;;;;26.77;24.60;;;;;;;;;;5120256;28;20824;-81
2023/10/02 13:05:19;;;;;;;27.37;25.17;;;;;;;;;;5106171;28;20424;-81
2023/10/02 13:07:48;;;;;;;27.73;25.53;;;;;;;;;;5110340;28;20479;-81
2023/10/02 13:10:15;;;;;;;27.73;25.33;;;;;;;;;;5120902;28;21012;-82
2023/10/02 13:12:44;;;;;;;29.07;26.47;;;;;;;;;;5104730;28;20419;-82
2023/10/02 13:15:13;;;;;;;27.43;25.13;;;;;;;;;;5101015;28;20511;-80
2023/10/02 13:17:40;;;;;;;27.80;24.97;;;;;;;;;;5095433;28;20473;-78
2023/10/02 13:20:09;;;;;;;29.50;27.10;;;;;;;;;;5095702;28;20448;-79
2023/10/02 13:22:36;;;;;;;29.23;26.73;;;;;;;;;;5096670;28;20453;-79
2023/10/02 13:25:04;;;;;;;27.77;25.60;;;;;;;;;;5095752;28;20468;-79
2023/10/02 13:27:32;;;;;;;28.47;26.27;;;;;;;;;;5096169;28;20485;-79
2023/10/02 13:30:00;;;;;;;26.97;24.60;;;;;;;;;;5097990;28;20987;-80
2023/10/02 13:32:29;;;;;;;27.37;25.17;;;;;;;;;;5112491;28;20463;-80
2023/10/02 13:34:56;;;;;;;25.70;23.73;;;;;;;;;;5118079;28;20452;-80
2023/10/02 13:37:23;;;;;;;27.13;24.70;;;;;;;;;;5118376;28;20476;-79
2023/10/02 13:39:50;;;;;;;27.00;24.83;;;;;;;;;;5118251;28;20443;-78
2023/10/02 13:42:17;;;;;;;28.67;26.10;;;;;;;;;;5117973;28;20444;-79
2023/10/02 13:44:45;;;;;;;26.63;24.33;;;;;;;;;;5117954;28;20451;-79
2023/10/02 13:47:13;;;;;;;26.90;24.77;;;;;;;;;;5117954;28;20555;-80
2023/10/02 13:49:40;;;;;;;26.63;24.43;;;;;;;;;;5118985;27;20444;-80
2023/10/02 13:52:09;;;;;;;26.60;24.50;;;;;;;;;;5117825;28;20452;-79
2023/10/02 13:54:37;;;;;;;27.10;24.90;;;;;;;;;;5116350;28;20508;-80
2023/10/02 13:57:04;;;;;;;27.50;25.30;;;;;;;;;;5116757;28;20530;-79
2023/10/02 13:59:32;;;;;;;26.07;24.00;;;;;;;;;;5117388;28;20501;-85
2023/10/02 14:01:59;;;;;;;27.67;25.40;;;;;;;;;;5120533;27;20499;-83
2023/10/02 14:04:28;;;;;;;26.40;24.33;;;;;;;;;;5121056;28;20460;-83
2023/10/02 14:06:56;;;;;;;27.43;25.37;;;;;;;;;;5117579;28;20861;-84
2023/10/02 14:09:24;;;;;;;28.23;25.83;;;;;;;;;;5099462;28;20487;-84
2023/10/02 14:11:52;;;;;;;27.33;24.87;;;;;;;;;;5098976;28;20535;-83
2023/10/02 14:14:19;;;;;;;27.80;25.63;;;;;;;;;;5099474;28;20468;-83
2023/10/02 14:16:46;;;;;;;27.17;24.33;;;;;;;;;;5101444;28;20579;-84
2023/10/02 14:19:13;;;;;;;26.80;24.70;;;;;;;;;;5099583;28;20414;-84
2023/10/02 14:21:41;;;;;;;26.13;24.13;;;;;;;;;;5099520;28;20444;-83
2023/10/02 14:24:09;;;;;;;27.23;25.00;;;;;;;;;;5098577;28;20463;-83
2023/10/02 14:26:36;;;;;;;27.90;25.30;;;;;;;;;;5099446;28;20524;-84
2023/10/02 14:29:04;;;;;;;26.47;24.33;;;;;;;;;;5099149;28;20473;-84
2023/10/02 14:31:32;;;;;;;26.77;24.37;;;;;;;;;;5099083;28;20474;-84
2023/10/02 14:33:59;;;;;;;27.30;24.70;;;;;;;;;;5098876;28;20456;-83
2023/10/02 14:36:28;;;;;;;28.70;26.10;;;;;;;;;;5098074;28;20505;-84
2023/10/02 14:38:57;;;;;;;28.40;25.77;;;;;;;;;;5096088;28;20464;-79
2023/10/02 14:41:25;;;;;;;27.70;25.40;;;;;;;;;;5098531;28;20484;-84
2023/10/02 14:43:53;;;;;;;26.73;24.33;;;;;;;;;;5103532;28;20501;-84
2023/10/02 14:46:21;;;;;;;27.37;25.10;;;;;;;;;;5118306;28;20499;-83
2023/10/02 14:48:48;;;;;;;27.43;24.93;;;;;;;;;;5096272;28;20596;-79
2023/10/02 14:51:15;;;;;;;26.50;24.50;;;;;;;;;;5092437;28;20415;-79
2023/10/02 14:53:42;;;;;;;26.73;24.20;;;;;;;;;;5092638;28;20449;-78
2023/10/02 14:56:10;;;;;;;27.30;25.00;;;;;;;;;;5092128;28;20522;-79
2023/10/02 14:58:40;;;;;;;27.23;24.83;;;;;;;;;;5101982;28;20449;-81
2023/10/02 15:01:11;;;;;;;26.43;24.23;;;;;;;;;;5102297;28;20468;-82
2023/10/02 15:03:39;;;;;;;28.27;25.67;;;;;;;;;;5098353;28;20505;-83
2023/10/02 15:06:10;;;;;;;27.03;24.83;;;;;;;;;;5097463;28;20500;-83
2023/10/02 15:08:37;;;;;;;27.00;24.13;;;;;;;;;;5098532;28;20410;-82
2023/10/02 15:11:05;;;;;;;27.13;24.83;;;;;;;;;;5097983;28;20440;-83